sensor_id;sensor_type;location;lat;lon;timestamp;temperature;humidity
1830;DHT22;914;48.118;11.600;2023-09-07T00:01:44;20.20;95.80
1830;DHT22;914;48.118;11.600;2023-09-07T00:04:09;20.10;96.00
1830;DHT22;914;48.118;11.600;2023-09-07T00:06:36;20.00;96.00
1830;DHT22;914;48.118;11.600;2023-09-07T00:09:02;19.90;96.10
1830;DHT22;914;48.118;11.600;2023-09-07T00:11:29;19.90;96.20
1830;DHT22;914;48.118;11.600;2023-09-07T00:13:55;20.00;96.80
1830;DHT22;914;48.118;11.600;2023-09-07T00:16:20;20.00;96.40
1830;DHT22;914;48.118;11.600;2023-09-07T00:18:46;19.90;96.50
1830;DHT22;914;48.118;11.600;2023-09-07T00:21:12;19.90;96.70
1830;DHT22;914;48.118;11.600;2023-09-07T00:23:39;19.80;96.50
1830;DHT22;914;48.118;11.600;2023-09-07T00:26:05;19.80;96.90
1830;DHT22;914;48.118;11.600;2023-09-07T00:28:30;19.60;96.80
1830;DHT22;914;48.118;11.600;2023-09-07T00:30:56;19.60;96.80
1830;DHT22;914;48.118;11.600;2023-09-07T00:33:21;19.50;96.80
1830;DHT22;914;48.118;11.600;2023-09-07T00:35:47;19.40;97.00
1830;DHT22;914;48.118;11.600;2023-09-07T00:38:12;19.40;97.30
1830;DHT22;914;48.118;11.600;2023-09-07T00:40:42;19.40;97.00
1830;DHT22;914;48.118;11.600;2023-09-07T00:43:07;19.40;97.20
1830;DHT22;914;48.118;11.600;2023-09-07T00:45:33;19.40;97.20
1830;DHT22;914;48.118;11.600;2023-09-07T00:47:58;19.40;97.50
1830;DHT22;914;48.118;11.600;2023-09-07T00:50:24;19.30;97.30
1830;DHT22;914;48.118;11.600;2023-09-07T00:52:50;19.30;97.30
1830;DHT22;914;48.118;11.600;2023-09-07T00:55:16;19.30;97.50
1830;DHT22;914;48.118;11.600;2023-09-07T00:57:42;19.30;97.70
1830;DHT22;914;48.118;11.600;2023-09-07T01:00:08;19.30;98.00
1830;DHT22;914;48.118;11.600;2023-09-07T01:02:34;19.30;98.30
1830;DHT22;914;48.118;11.600;2023-09-07T01:05:01;19.30;97.80
1830;DHT22;914;48.118;11.600;2023-09-07T01:07:35;19.30;97.70
1830;DHT22;914;48.118;11.600;2023-09-07T01:10:03;19.30;97.80
1830;DHT22;914;48.118;11.600;2023-09-07T01:12:29;19.40;98.00
1830;DHT22;914;48.118;11.600;2023-09-07T01:14:56;19.30;98.50
1830;DHT22;914;48.118;11.600;2023-09-07T01:17:21;19.30;98.60
1830;DHT22;914;48.118;11.600;2023-09-07T01:19:51;19.30;98.30
1830;DHT22;914;48.118;11.600;2023-09-07T01:22:21;19.20;98.00
1830;DHT22;914;48.118;11.600;2023-09-07T01:24:51;19.20;98.00
1830;DHT22;914;48.118;11.600;2023-09-07T01:27:18;19.20;98.00
1830;DHT22;914;48.118;11.600;2023-09-07T01:29:44;19.10;97.70
1830;DHT22;914;48.118;11.600;2023-09-07T01:32:10;19.10;97.90
1830;DHT22;914;48.118;11.600;2023-09-07T01:34:36;19.00;97.90
1830;DHT22;914;48.118;11.600;2023-09-07T01:37:02;19.00;98.00
1830;DHT22;914;48.118;11.600;2023-09-07T01:39:28;19.00;97.70
1830;DHT22;914;48.118;11.600;2023-09-07T01:41:53;19.00;97.60
1830;DHT22;914;48.118;11.600;2023-09-07T01:44:19;18.90;97.70
1830;DHT22;914;48.118;11.600;2023-09-07T01:46:45;18.80;97.80
1830;DHT22;914;48.118;11.600;2023-09-07T01:49:10;18.80;97.80
1830;DHT22;914;48.118;11.600;2023-09-07T01:51:36;18.70;98.10
1830;DHT22;914;48.118;11.600;2023-09-07T01:54:02;18.60;98.50
1830;DHT22;914;48.118;11.600;2023-09-07T01:56:28;18.60;98.70
1830;DHT22;914;48.118;11.600;2023-09-07T01:58:53;18.60;98.40
1830;DHT22;914;48.118;11.600;2023-09-07T02:01:27;18.60;98.30
1830;DHT22;914;48.118;11.600;2023-09-07T02:03:55;18.50;98.20
1830;DHT22;914;48.118;11.600;2023-09-07T02:06:20;18.50;98.30
1830;DHT22;914;48.118;11.600;2023-09-07T02:08:46;18.50;98.40
1830;DHT22;914;48.118;11.600;2023-09-07T02:11:12;18.50;98.60
1830;DHT22;914;48.118;11.600;2023-09-07T02:13:41;18.40;98.70
1830;DHT22;914;48.118;11.600;2023-09-07T02:16:07;18.40;98.80
1830;DHT22;914;48.118;11.600;2023-09-07T02:18:32;18.40;98.90
1830;DHT22;914;48.118;11.600;2023-09-07T02:21:05;18.30;99.00
1830;DHT22;914;48.118;11.600;2023-09-07T02:23:32;18.30;98.80
1830;DHT22;914;48.118;11.600;2023-09-07T02:25:58;18.30;98.70
1830;DHT22;914;48.118;11.600;2023-09-07T02:28:24;18.20;98.70
1830;DHT22;914;48.118;11.600;2023-09-07T02:30:53;18.20;98.60
1830;DHT22;914;48.118;11.600;2023-09-07T02:33:19;18.10;98.60
1830;DHT22;914;48.118;11.600;2023-09-07T02:35:44;18.00;98.70
1830;DHT22;914;48.118;11.600;2023-09-07T02:38:10;18.00;98.70
1830;DHT22;914;48.118;11.600;2023-09-07T02:40:43;17.90;99.00
1830;DHT22;914;48.118;11.600;2023-09-07T02:43:10;17.90;99.20
1830;DHT22;914;48.118;11.600;2023-09-07T02:45:35;17.90;99.40
1830;DHT22;914;48.118;11.600;2023-09-07T02:48:02;17.90;99.40
1830;DHT22;914;48.118;11.600;2023-09-07T02:50:34;17.90;99.50
1830;DHT22;914;48.118;11.600;2023-09-07T02:53:01;17.80;99.50
1830;DHT22;914;48.118;11.600;2023-09-07T02:55:27;17.70;99.40
1830;DHT22;914;48.118;11.600;2023-09-07T02:57:56;17.60;99.80
1830;DHT22;914;48.118;11.600;2023-09-07T03:00:23;17.60;99.90
1830;DHT22;914;48.118;11.600;2023-09-07T03:02:49;17.60;99.70
1830;DHT22;914;48.118;11.600;2023-09-07T03:05:15;17.70;99.60
1830;DHT22;914;48.118;11.600;2023-09-07T03:07:41;17.60;99.90
1830;DHT22;914;48.118;11.600;2023-09-07T03:10:07;17.60;99.50
1830;DHT22;914;48.118;11.600;2023-09-07T03:12:33;17.60;99.60
1830;DHT22;914;48.118;11.600;2023-09-07T03:14:59;17.60;99.40
1830;DHT22;914;48.118;11.600;2023-09-07T03:17:31;17.60;99.50
1830;DHT22;914;48.118;11.600;2023-09-07T03:19:57;17.60;99.60
1830;DHT22;914;48.118;11.600;2023-09-07T03:22:23;17.60;99.70
1830;DHT22;914;48.118;11.600;2023-09-07T03:24:52;17.60;99.80
1830;DHT22;914;48.118;11.600;2023-09-07T03:27:18;17.60;99.50
1830;DHT22;914;48.118;11.600;2023-09-07T03:29:44;17.60;99.60
1830;DHT22;914;48.118;11.600;2023-09-07T03:32:10;17.50;99.60
1830;DHT22;914;48.118;11.600;2023-09-07T03:34:36;17.60;99.60
1830;DHT22;914;48.118;11.600;2023-09-07T03:37:01;17.50;99.30
1830;DHT22;914;48.118;11.600;2023-09-07T03:39:27;17.40;99.70
1830;DHT22;914;48.118;11.600;2023-09-07T03:41:54;17.30;99.90
1830;DHT22;914;48.118;11.600;2023-09-07T03:44:19;17.30;99.90
1830;DHT22;914;48.118;11.600;2023-09-07T03:46:45;17.40;99.90
1830;DHT22;914;48.118;11.600;2023-09-07T03:49:10;17.40;99.80
1830;DHT22;914;48.118;11.600;2023-09-07T03:51:36;17.40;99.90
1830;DHT22;914;48.118;11.600;2023-09-07T03:54:03;17.40;99.90
1830;DHT22;914;48.118;11.600;2023-09-07T03:56:28;17.40;99.90
1830;DHT22;914;48.118;11.600;2023-09-07T03:58:54;17.40;99.90
1830;DHT22;914;48.118;11.600;2023-09-07T04:01:20;17.40;99.80
1830;DHT22;914;48.118;11.600;2023-09-07T04:03:45;17.30;99.80
1830;DHT22;914;48.118;11.600;2023-09-07T04:06:11;17.30;99.70
1830;DHT22;914;48.118;11.600;2023-09-07T04:08:37;17.20;99.80
1830;DHT22;914;48.118;11.600;2023-09-07T04:11:06;17.20;99.70
1830;DHT22;914;48.118;11.600;2023-09-07T04:13:32;17.20;99.70
1830;DHT22;914;48.118;11.600;2023-09-07T04:15:58;17.20;99.70
1830;DHT22;914;48.118;11.600;2023-09-07T04:18:23;17.10;99.70
1830;DHT22;914;48.118;11.600;2023-09-07T04:20:49;17.10;99.80
1830;DHT22;914;48.118;11.600;2023-09-07T04:23:15;17.00;99.60
1830;DHT22;914;48.118;11.600;2023-09-07T04:25:40;16.90;99.90
1830;DHT22;914;48.118;11.600;2023-09-07T04:28:06;16.90;99.90
1830;DHT22;914;48.118;11.600;2023-09-07T04:30:39;16.80;99.90
1830;DHT22;914;48.118;11.600;2023-09-07T04:33:05;16.70;99.90
1830;DHT22;914;48.118;11.600;2023-09-07T04:35:33;16.70;99.90
1830;DHT22;914;48.118;11.600;2023-09-07T04:37:58;16.70;99.90
1830;DHT22;914;48.118;11.600;2023-09-07T04:40:25;16.70;99.90
1830;DHT22;914;48.118;11.600;2023-09-07T04:42:50;16.70;99.90
1830;DHT22;914;48.118;11.600;2023-09-07T04:45:16;16.80;99.90
1830;DHT22;914;48.118;11.600;2023-09-07T04:47:43;16.90;99.90
1830;DHT22;914;48.118;11.600;2023-09-07T04:50:08;16.90;99.90
1830;DHT22;914;48.118;11.600;2023-09-07T04:52:34;16.90;99.90
1830;DHT22;914;48.118;11.600;2023-09-07T04:55:00;16.90;99.70
1830;DHT22;914;48.118;11.600;2023-09-07T04:57:26;16.90;99.90
1830;DHT22;914;48.118;11.600;2023-09-07T04:59:51;16.90;99.80
1830;DHT22;914;48.118;11.600;2023-09-07T05:02:17;16.90;99.60
1830;DHT22;914;48.118;11.600;2023-09-07T05:04:43;16.90;99.50
1830;DHT22;914;48.118;11.600;2023-09-07T05:07:09;16.90;99.60
1830;DHT22;914;48.118;11.600;2023-09-07T05:09:34;17.00;99.40
1830;DHT22;914;48.118;11.600;2023-09-07T05:12:00;16.90;99.20
1830;DHT22;914;48.118;11.600;2023-09-07T05:14:26;16.90;99.20
1830;DHT22;914;48.118;11.600;2023-09-07T05:16:51;16.80;99.50
1830;DHT22;914;48.118;11.600;2023-09-07T05:19:18;16.80;99.50
1830;DHT22;914;48.118;11.600;2023-09-07T05:21:43;16.90;99.60
1830;DHT22;914;48.118;11.600;2023-09-07T05:24:09;16.90;99.40
1830;DHT22;914;48.118;11.600;2023-09-07T05:26:35;16.90;99.20
1830;DHT22;914;48.118;11.600;2023-09-07T05:29:00;16.90;99.40
1830;DHT22;914;48.118;11.600;2023-09-07T05:31:26;16.90;99.30
1830;DHT22;914;48.118;11.600;2023-09-07T05:33:52;16.90;99.10
1830;DHT22;914;48.118;11.600;2023-09-07T05:36:18;16.90;99.30
1830;DHT22;914;48.118;11.600;2023-09-07T05:38:43;17.00;99.50
1830;DHT22;914;48.118;11.600;2023-09-07T05:41:09;17.10;99.70
1830;DHT22;914;48.118;11.600;2023-09-07T05:43:34;17.20;99.50
1830;DHT22;914;48.118;11.600;2023-09-07T05:46:00;17.20;99.50
1830;DHT22;914;48.118;11.600;2023-09-07T05:48:26;17.30;99.60
1830;DHT22;914;48.118;11.600;2023-09-07T05:50:52;17.30;99.60
1830;DHT22;914;48.118;11.600;2023-09-07T05:53:19;17.40;99.80
1830;DHT22;914;48.118;11.600;2023-09-07T05:55:46;17.50;99.80
1830;DHT22;914;48.118;11.600;2023-09-07T05:58:12;17.70;99.60
1830;DHT22;914;48.118;11.600;2023-09-07T06:00:38;17.60;99.60
1830;DHT22;914;48.118;11.600;2023-09-07T06:03:06;17.70;99.60
1830;DHT22;914;48.118;11.600;2023-09-07T06:05:34;17.60;99.90
1830;DHT22;914;48.118;11.600;2023-09-07T06:08:00;17.80;99.90
1830;DHT22;914;48.118;11.600;2023-09-07T06:10:28;17.90;99.90
1830;DHT22;914;48.118;11.600;2023-09-07T06:12:54;18.10;99.90
1830;DHT22;914;48.118;11.600;2023-09-07T06:15:20;18.30;99.90
1830;DHT22;914;48.118;11.600;2023-09-07T06:17:45;18.40;99.90
1830;DHT22;914;48.118;11.600;2023-09-07T06:20:11;18.40;99.90
1830;DHT22;914;48.118;11.600;2023-09-07T06:22:37;18.50;99.90
1830;DHT22;914;48.118;11.600;2023-09-07T06:25:02;18.70;99.90
1830;DHT22;914;48.118;11.600;2023-09-07T06:27:28;18.70;99.90
1830;DHT22;914;48.118;11.600;2023-09-07T06:29:54;18.80;99.90
1830;DHT22;914;48.118;11.600;2023-09-07T06:32:19;19.00;99.90
1830;DHT22;914;48.118;11.600;2023-09-07T06:34:45;19.20;99.90
1830;DHT22;914;48.118;11.600;2023-09-07T06:37:11;19.30;99.90
1830;DHT22;914;48.118;11.600;2023-09-07T06:39:37;19.10;99.90
1830;DHT22;914;48.118;11.600;2023-09-07T06:42:03;19.20;99.90
1830;DHT22;914;48.118;11.600;2023-09-07T06:44:29;19.40;99.90
1830;DHT22;914;48.118;11.600;2023-09-07T06:46:55;19.20;99.90
1830;DHT22;914;48.118;11.600;2023-09-07T06:49:21;19.30;99.90
1830;DHT22;914;48.118;11.600;2023-09-07T06:51:47;19.50;99.90
1830;DHT22;914;48.118;11.600;2023-09-07T06:54:13;19.70;99.90
1830;DHT22;914;48.118;11.600;2023-09-07T06:56:39;19.90;99.90
1830;DHT22;914;48.118;11.600;2023-09-07T06:59:05;19.40;99.90
1830;DHT22;914;48.118;11.600;2023-09-07T07:01:30;19.60;99.90
1830;DHT22;914;48.118;11.600;2023-09-07T07:03:56;19.70;99.90
1830;DHT22;914;48.118;11.600;2023-09-07T07:06:23;20.00;99.90
1830;DHT22;914;48.118;11.600;2023-09-07T07:08:48;20.00;99.90
1830;DHT22;914;48.118;11.600;2023-09-07T07:11:14;20.10;99.90
1830;DHT22;914;48.118;11.600;2023-09-07T07:13:40;20.30;99.90
1830;DHT22;914;48.118;11.600;2023-09-07T07:16:06;20.30;99.90
1830;DHT22;914;48.118;11.600;2023-09-07T07:18:31;20.30;99.90
1830;DHT22;914;48.118;11.600;2023-09-07T07:20:57;20.50;99.90
1830;DHT22;914;48.118;11.600;2023-09-07T07:23:23;20.60;99.90
1830;DHT22;914;48.118;11.600;2023-09-07T07:25:48;20.50;99.90
1830;DHT22;914;48.118;11.600;2023-09-07T07:28:14;20.90;99.90
1830;DHT22;914;48.118;11.600;2023-09-07T07:30:40;21.10;99.90
1830;DHT22;914;48.118;11.600;2023-09-07T07:33:06;21.40;99.90
1830;DHT22;914;48.118;11.600;2023-09-07T07:35:33;21.20;99.90
1830;DHT22;914;48.118;11.600;2023-09-07T07:38:00;20.20;99.90
1830;DHT22;914;48.118;11.600;2023-09-07T07:40:26;20.60;99.90
1830;DHT22;914;48.118;11.600;2023-09-07T07:42:52;21.00;99.90
1830;DHT22;914;48.118;11.600;2023-09-07T07:45:18;21.50;99.90
1830;DHT22;914;48.118;11.600;2023-09-07T07:47:51;21.50;99.90
1830;DHT22;914;48.118;11.600;2023-09-07T07:50:17;21.90;99.90
1830;DHT22;914;48.118;11.600;2023-09-07T07:52:43;21.70;99.70
1830;DHT22;914;48.118;11.600;2023-09-07T07:55:09;21.90;99.80
1830;DHT22;914;48.118;11.600;2023-09-07T07:57:35;22.00;99.70
1830;DHT22;914;48.118;11.600;2023-09-07T08:00:01;21.60;99.90
1830;DHT22;914;48.118;11.600;2023-09-07T08:02:28;21.80;99.80
1830;DHT22;914;48.118;11.600;2023-09-07T08:04:54;21.80;99.90
1830;DHT22;914;48.118;11.600;2023-09-07T08:07:19;21.60;99.90
1830;DHT22;914;48.118;11.600;2023-09-07T08:09:45;22.00;99.90
1830;DHT22;914;48.118;11.600;2023-09-07T08:12:11;22.20;99.80
1830;DHT22;914;48.118;11.600;2023-09-07T08:14:36;22.50;99.50
1830;DHT22;914;48.118;11.600;2023-09-07T08:17:02;22.10;99.40
1830;DHT22;914;48.118;11.600;2023-09-07T08:19:28;22.30;99.90
1830;DHT22;914;48.118;11.600;2023-09-07T08:21:55;22.60;99.70
1830;DHT22;914;48.118;11.600;2023-09-07T08:24:20;22.90;99.40
1830;DHT22;914;48.118;11.600;2023-09-07T08:26:46;23.00;99.10
1830;DHT22;914;48.118;11.600;2023-09-07T08:29:16;22.90;98.20
1830;DHT22;914;48.118;11.600;2023-09-07T08:31:42;23.00;98.90
1830;DHT22;914;48.118;11.600;2023-09-07T08:34:10;23.20;99.20
1830;DHT22;914;48.118;11.600;2023-09-07T08:36:40;23.40;99.00
1830;DHT22;914;48.118;11.600;2023-09-07T08:39:06;23.70;98.70
1830;DHT22;914;48.118;11.600;2023-09-07T08:41:40;23.10;98.40
1830;DHT22;914;48.118;11.600;2023-09-07T08:44:19;23.40;98.50
1830;DHT22;914;48.118;11.600;2023-09-07T08:46:49;23.50;98.80
1830;DHT22;914;48.118;11.600;2023-09-07T08:49:16;23.10;98.30
1830;DHT22;914;48.118;11.600;2023-09-07T08:51:44;23.30;98.80
1830;DHT22;914;48.118;11.600;2023-09-07T08:54:12;22.80;98.80
1830;DHT22;914;48.118;11.600;2023-09-07T08:56:37;23.30;99.50
1830;DHT22;914;48.118;11.600;2023-09-07T08:59:03;23.70;98.90
1830;DHT22;914;48.118;11.600;2023-09-07T09:01:30;24.10;98.20
1830;DHT22;914;48.118;11.600;2023-09-07T09:03:59;23.80;97.90
1830;DHT22;914;48.118;11.600;2023-09-07T09:06:25;24.00;98.20
1830;DHT22;914;48.118;11.600;2023-09-07T09:08:55;24.00;97.90
1830;DHT22;914;48.118;11.600;2023-09-07T09:11:22;24.20;98.30
1830;DHT22;914;48.118;11.600;2023-09-07T09:13:49;23.30;97.70
1830;DHT22;914;48.118;11.600;2023-09-07T09:16:16;23.70;98.80
1830;DHT22;914;48.118;11.600;2023-09-07T09:18:56;24.10;98.10
1830;DHT22;914;48.118;11.600;2023-09-07T09:21:23;24.10;98.70
1830;DHT22;914;48.118;11.600;2023-09-07T09:23:51;24.50;98.00
1830;DHT22;914;48.118;11.600;2023-09-07T09:26:17;24.70;98.10
1830;DHT22;914;48.118;11.600;2023-09-07T09:28:43;24.90;96.80
1830;DHT22;914;48.118;11.600;2023-09-07T09:31:12;24.20;97.40
1830;DHT22;914;48.118;11.600;2023-09-07T09:33:42;24.50;98.10
1830;DHT22;914;48.118;11.600;2023-09-07T09:36:12;24.90;97.80
1830;DHT22;914;48.118;11.600;2023-09-07T09:38:39;24.90;97.40
1830;DHT22;914;48.118;11.600;2023-09-07T09:41:06;25.20;97.40
1830;DHT22;914;48.118;11.600;2023-09-07T09:43:33;25.50;96.30
1830;DHT22;914;48.118;11.600;2023-09-07T09:46:00;25.50;96.30
1830;DHT22;914;48.118;11.600;2023-09-07T09:48:27;25.50;96.30
1830;DHT22;914;48.118;11.600;2023-09-07T09:50:53;25.20;96.60
1830;DHT22;914;48.118;11.600;2023-09-07T09:53:19;25.70;96.10
1830;DHT22;914;48.118;11.600;2023-09-07T09:55:50;26.20;96.00
1830;DHT22;914;48.118;11.600;2023-09-07T09:58:18;26.00;96.40
1830;DHT22;914;48.118;11.600;2023-09-07T10:01:05;26.30;95.50
1830;DHT22;914;48.118;11.600;2023-09-07T10:03:38;24.40;95.30
1830;DHT22;914;48.118;11.600;2023-09-07T10:06:24;24.80;97.10
1830;DHT22;914;48.118;11.600;2023-09-07T10:09:02;25.20;97.00
1830;DHT22;914;48.118;11.600;2023-09-07T10:11:34;25.50;97.20
1830;DHT22;914;48.118;11.600;2023-09-07T10:14:02;26.00;96.20
1830;DHT22;914;48.118;11.600;2023-09-07T10:16:53;26.20;95.60
1830;DHT22;914;48.118;11.600;2023-09-07T10:19:25;26.00;95.00
1830;DHT22;914;48.118;11.600;2023-09-07T10:21:55;26.40;95.50
1830;DHT22;914;48.118;11.600;2023-09-07T10:24:25;25.10;96.00
1830;DHT22;914;48.118;11.600;2023-09-07T10:27:08;24.60;96.70
1830;DHT22;914;48.118;11.600;2023-09-07T10:29:45;25.20;96.40
1830;DHT22;914;48.118;11.600;2023-09-07T10:32:11;25.10;95.80
1830;DHT22;914;48.118;11.600;2023-09-07T10:34:40;24.80;96.70
1830;DHT22;914;48.118;11.600;2023-09-07T10:37:12;25.50;96.50
1830;DHT22;914;48.118;11.600;2023-09-07T10:39:39;26.40;95.70
1830;DHT22;914;48.118;11.600;2023-09-07T10:42:08;26.50;94.50
1830;DHT22;914;48.118;11.600;2023-09-07T10:44:34;26.20;94.50
1830;DHT22;914;48.118;11.600;2023-09-07T10:47:00;26.40;94.70
1830;DHT22;914;48.118;11.600;2023-09-07T10:49:26;26.70;94.40
1830;DHT22;914;48.118;11.600;2023-09-07T10:51:51;26.70;94.90
1830;DHT22;914;48.118;11.600;2023-09-07T10:54:22;27.30;93.70
1830;DHT22;914;48.118;11.600;2023-09-07T10:56:49;27.40;93.70
1830;DHT22;914;48.118;11.600;2023-09-07T10:59:15;27.80;92.80
1830;DHT22;914;48.118;11.600;2023-09-07T11:01:43;27.40;92.90
1830;DHT22;914;48.118;11.600;2023-09-07T11:04:09;27.90;92.40
1830;DHT22;914;48.118;11.600;2023-09-07T11:06:38;27.80;92.00
1830;DHT22;914;48.118;11.600;2023-09-07T11:09:04;27.80;92.80
1830;DHT22;914;48.118;11.600;2023-09-07T11:11:32;28.10;92.70
1830;DHT22;914;48.118;11.600;2023-09-07T11:13:59;28.00;92.00
1830;DHT22;914;48.118;11.600;2023-09-07T11:16:25;28.20;92.70
1830;DHT22;914;48.118;11.600;2023-09-07T11:18:52;27.70;92.50
1830;DHT22;914;48.118;11.600;2023-09-07T11:21:20;27.60;92.10
1830;DHT22;914;48.118;11.600;2023-09-07T11:23:46;27.50;92.30
1830;DHT22;914;48.118;11.600;2023-09-07T11:26:12;27.40;92.30
1830;DHT22;914;48.118;11.600;2023-09-07T11:28:38;27.50;92.10
1830;DHT22;914;48.118;11.600;2023-09-07T11:31:04;28.00;91.90
1830;DHT22;914;48.118;11.600;2023-09-07T11:33:33;27.80;92.00
1830;DHT22;914;48.118;11.600;2023-09-07T11:35:58;28.20;92.10
1830;DHT22;914;48.118;11.600;2023-09-07T11:38:29;27.30;92.30
1830;DHT22;914;48.118;11.600;2023-09-07T11:41:00;27.20;93.00
1830;DHT22;914;48.118;11.600;2023-09-07T11:43:25;26.60;93.90
1830;DHT22;914;48.118;11.600;2023-09-07T11:45:51;27.40;93.60
1830;DHT22;914;48.118;11.600;2023-09-07T11:48:17;27.30;92.30
1830;DHT22;914;48.118;11.600;2023-09-07T11:50:43;27.10;94.00
1830;DHT22;914;48.118;11.600;2023-09-07T11:53:09;28.00;93.50
1830;DHT22;914;48.118;11.600;2023-09-07T11:55:35;29.90;91.90
1830;DHT22;914;48.118;11.600;2023-09-07T11:58:01;31.60;87.40
1830;DHT22;914;48.118;11.600;2023-09-07T12:00:27;32.10;85.70
1830;DHT22;914;48.118;11.600;2023-09-07T12:02:53;33.30;82.30
1830;DHT22;914;48.118;11.600;2023-09-07T12:05:19;32.30;79.80
1830;DHT22;914;48.118;11.600;2023-09-07T12:07:45;32.70;80.40
1830;DHT22;914;48.118;11.600;2023-09-07T12:10:11;33.90;80.10
1830;DHT22;914;48.118;11.600;2023-09-07T12:12:41;32.30;76.20
1830;DHT22;914;48.118;11.600;2023-09-07T12:15:08;32.10;81.90
1830;DHT22;914;48.118;11.600;2023-09-07T12:17:34;33.10;79.10
1830;DHT22;914;48.118;11.600;2023-09-07T12:20:00;34.70;77.30
1830;DHT22;914;48.118;11.600;2023-09-07T12:22:26;34.30;75.10
1830;DHT22;914;48.118;11.600;2023-09-07T12:24:52;34.60;75.00
1830;DHT22;914;48.118;11.600;2023-09-07T12:27:18;34.70;75.70
1830;DHT22;914;48.118;11.600;2023-09-07T12:29:44;35.50;74.30
1830;DHT22;914;48.118;11.600;2023-09-07T12:32:10;35.60;73.50
1830;DHT22;914;48.118;11.600;2023-09-07T12:34:37;35.10;69.80
1830;DHT22;914;48.118;11.600;2023-09-07T12:37:02;34.00;74.80
1830;DHT22;914;48.118;11.600;2023-09-07T12:39:31;34.80;76.70
1830;DHT22;914;48.118;11.600;2023-09-07T12:41:57;35.50;73.40
1830;DHT22;914;48.118;11.600;2023-09-07T12:44:23;36.30;72.40
1830;DHT22;914;48.118;11.600;2023-09-07T12:46:48;36.30;70.20
1830;DHT22;914;48.118;11.600;2023-09-07T12:49:14;32.80;68.10
1830;DHT22;914;48.118;11.600;2023-09-07T12:51:41;32.10;77.90
1830;DHT22;914;48.118;11.600;2023-09-07T12:54:06;33.30;78.80
1830;DHT22;914;48.118;11.600;2023-09-07T12:56:33;33.20;75.50
1830;DHT22;914;48.118;11.600;2023-09-07T12:58:58;33.50;78.00
1830;DHT22;914;48.118;11.600;2023-09-07T13:01:26;33.70;76.50
1830;DHT22;914;48.118;11.600;2023-09-07T13:03:51;33.30;74.40
1830;DHT22;914;48.118;11.600;2023-09-07T13:06:17;33.30;74.30
1830;DHT22;914;48.118;11.600;2023-09-07T13:08:43;32.70;74.30
1830;DHT22;914;48.118;11.600;2023-09-07T13:11:10;33.60;74.40
1830;DHT22;914;48.118;11.600;2023-09-07T13:13:36;31.80;76.10
1830;DHT22;914;48.118;11.600;2023-09-07T13:16:02;30.90;77.80
1830;DHT22;914;48.118;11.600;2023-09-07T13:18:28;30.10;79.60
1830;DHT22;914;48.118;11.600;2023-09-07T13:20:53;31.40;79.70
1830;DHT22;914;48.118;11.600;2023-09-07T13:23:26;32.60;76.60
1830;DHT22;914;48.118;11.600;2023-09-07T13:25:51;33.20;74.10
1830;DHT22;914;48.118;11.600;2023-09-07T13:28:17;32.30;74.50
1830;DHT22;914;48.118;11.600;2023-09-07T13:30:43;31.30;78.90
1830;DHT22;914;48.118;11.600;2023-09-07T13:33:08;31.80;77.30
1830;DHT22;914;48.118;11.600;2023-09-07T13:35:34;31.90;75.00
1830;DHT22;914;48.118;11.600;2023-09-07T13:38:00;31.60;77.70
1830;DHT22;914;48.118;11.600;2023-09-07T13:40:25;32.20;78.30
1830;DHT22;914;48.118;11.600;2023-09-07T13:42:55;33.00;74.70
1830;DHT22;914;48.118;11.600;2023-09-07T13:45:21;34.10;72.60
1830;DHT22;914;48.118;11.600;2023-09-07T13:47:47;34.00;69.60
1830;DHT22;914;48.118;11.600;2023-09-07T13:50:13;33.70;72.70
1830;DHT22;914;48.118;11.600;2023-09-07T13:52:39;32.20;68.80
1830;DHT22;914;48.118;11.600;2023-09-07T13:55:05;31.00;74.70
1830;DHT22;914;48.118;11.600;2023-09-07T13:57:32;31.40;78.50
1830;DHT22;914;48.118;11.600;2023-09-07T13:59:58;31.80;71.80
1830;DHT22;914;48.118;11.600;2023-09-07T14:02:24;30.60;74.70
1830;DHT22;914;48.118;11.600;2023-09-07T14:04:49;30.90;75.00
1830;DHT22;914;48.118;11.600;2023-09-07T14:07:15;30.60;75.60
1830;DHT22;914;48.118;11.600;2023-09-07T14:09:41;30.50;74.20
1830;DHT22;914;48.118;11.600;2023-09-07T14:12:07;30.50;76.20
1830;DHT22;914;48.118;11.600;2023-09-07T14:14:32;29.60;76.10
1830;DHT22;914;48.118;11.600;2023-09-07T14:16:58;28.30;77.20
1830;DHT22;914;48.118;11.600;2023-09-07T14:19:26;27.90;80.70
1830;DHT22;914;48.118;11.600;2023-09-07T14:21:57;28.00;81.10
1830;DHT22;914;48.118;11.600;2023-09-07T14:24:23;28.20;82.20
1830;DHT22;914;48.118;11.600;2023-09-07T14:26:49;28.20;83.10
1830;DHT22;914;48.118;11.600;2023-09-07T14:29:15;28.10;80.20
1830;DHT22;914;48.118;11.600;2023-09-07T14:31:40;27.80;80.60
1830;DHT22;914;48.118;11.600;2023-09-07T14:34:08;27.70;82.90
1830;DHT22;914;48.118;11.600;2023-09-07T14:36:34;28.20;81.80
1830;DHT22;914;48.118;11.600;2023-09-07T14:38:59;28.10;78.70
1830;DHT22;914;48.118;11.600;2023-09-07T14:41:25;27.80;81.50
1830;DHT22;914;48.118;11.600;2023-09-07T14:43:53;28.10;81.20
1830;DHT22;914;48.118;11.600;2023-09-07T14:46:19;28.30;80.60
1830;DHT22;914;48.118;11.600;2023-09-07T14:48:44;28.20;81.30
1830;DHT22;914;48.118;11.600;2023-09-07T14:51:13;28.30;81.40
1830;DHT22;914;48.118;11.600;2023-09-07T14:53:38;28.40;80.90
1830;DHT22;914;48.118;11.600;2023-09-07T14:56:04;28.30;81.00
1830;DHT22;914;48.118;11.600;2023-09-07T14:58:30;28.30;81.10
1830;DHT22;914;48.118;11.600;2023-09-07T15:00:55;28.40;80.40
1830;DHT22;914;48.118;11.600;2023-09-07T15:03:21;28.60;77.70
1830;DHT22;914;48.118;11.600;2023-09-07T15:05:47;28.80;78.00
1830;DHT22;914;48.118;11.600;2023-09-07T15:08:12;28.20;77.70
1830;DHT22;914;48.118;11.600;2023-09-07T15:10:38;27.50;78.80
1830;DHT22;914;48.118;11.600;2023-09-07T15:13:03;27.50;79.40
1830;DHT22;914;48.118;11.600;2023-09-07T15:15:30;27.70;79.90
1830;DHT22;914;48.118;11.600;2023-09-07T15:18:02;27.80;80.30
1830;DHT22;914;48.118;11.600;2023-09-07T15:20:28;27.90;79.90
1830;DHT22;914;48.118;11.600;2023-09-07T15:22:54;28.10;79.70
1830;DHT22;914;48.118;11.600;2023-09-07T15:25:20;28.30;79.20
1830;DHT22;914;48.118;11.600;2023-09-07T15:27:46;28.00;80.80
1830;DHT22;914;48.118;11.600;2023-09-07T15:30:13;27.80;77.30
1830;DHT22;914;48.118;11.600;2023-09-07T15:32:39;27.80;80.00
1830;DHT22;914;48.118;11.600;2023-09-07T15:35:08;27.50;80.30
1830;DHT22;914;48.118;11.600;2023-09-07T15:37:34;27.70;80.00
1830;DHT22;914;48.118;11.600;2023-09-07T15:39:59;27.70;80.40
1830;DHT22;914;48.118;11.600;2023-09-07T15:42:25;27.70;79.40
1830;DHT22;914;48.118;11.600;2023-09-07T15:44:52;27.60;79.50
1830;DHT22;914;48.118;11.600;2023-09-07T15:47:17;27.70;77.20
1830;DHT22;914;48.118;11.600;2023-09-07T15:49:43;27.80;78.60
1830;DHT22;914;48.118;11.600;2023-09-07T15:52:11;27.70;78.80
1830;DHT22;914;48.118;11.600;2023-09-07T15:54:37;27.70;79.50
1830;DHT22;914;48.118;11.600;2023-09-07T15:57:03;27.70;78.30
1830;DHT22;914;48.118;11.600;2023-09-07T15:59:30;27.70;78.70